Terminal Aerodrome Forecast
Issued by NWS Cleveland, OH

Home | Current Version | Previous Version | Graphics & Text | Print | Product List | Glossary On
Versions: 1 2 3 4 5 6 7 8 9 10 11 12 13 14 15 16 17 18 19 20 21
000
FTUS41 KCLE 210529
TAFYNG
TAF
KYNG 210529Z 2106/2206 12007KT P6SM OVC250
     FM211400 16010KT P6SM OVC200
     FM212000 20008KT P6SM OVC100
     FM220000 20007KT P6SM OVC050
     FM220500 20006KT 5SM BR OVC025=

USA.gov is the U.S. government's official web portal to all federal, state and local government web resources and services.